sensor_id;sensor_type;location;lat;lon;timestamp;P1;durP1;ratioP1;P2;durP2;ratioP2
67981;SDS011;64109;52.148;4.466;2023-07-08T00:02:10;3.28;;;1.90;;
67981;SDS011;64109;52.148;4.466;2023-07-08T00:04:37;4.72;;;1.95;;
67981;SDS011;64109;52.148;4.466;2023-07-08T00:07:03;3.85;;;2.17;;
67981;SDS011;64109;52.148;4.466;2023-07-08T00:09:29;3.30;;;2.47;;
67981;SDS011;64109;52.148;4.466;2023-07-08T00:11:55;3.55;;;2.03;;
67981;SDS011;64109;52.148;4.466;2023-07-08T00:14:25;3.20;;;1.90;;
67981;SDS011;64109;52.148;4.466;2023-07-08T00:16:51;3.60;;;2.28;;
67981;SDS011;64109;52.148;4.466;2023-07-08T00:19:17;4.43;;;1.90;;
67981;SDS011;64109;52.148;4.466;2023-07-08T00:21:44;4.15;;;2.85;;
67981;SDS011;64109;52.148;4.466;2023-07-08T00:24:11;4.75;;;2.35;;
67981;SDS011;64109;52.148;4.466;2023-07-08T00:26:37;2.80;;;1.80;;
67981;SDS011;64109;52.148;4.466;2023-07-08T00:29:08;3.55;;;1.98;;
67981;SDS011;64109;52.148;4.466;2023-07-08T00:31:35;4.63;;;2.13;;
67981;SDS011;64109;52.148;4.466;2023-07-08T00:34:01;3.67;;;2.25;;
67981;SDS011;64109;52.148;4.466;2023-07-08T00:36:28;3.75;;;2.13;;
67981;SDS011;64109;52.148;4.466;2023-07-08T00:38:54;3.58;;;2.42;;
67981;SDS011;64109;52.148;4.466;2023-07-08T00:41:30;3.30;;;2.22;;
67981;SDS011;64109;52.148;4.466;2023-07-08T00:43:58;3.03;;;2.30;;
67981;SDS011;64109;52.148;4.466;2023-07-08T00:46:29;2.78;;;2.00;;
67981;SDS011;64109;52.148;4.466;2023-07-08T00:51:32;3.42;;;2.00;;
67981;SDS011;64109;52.148;4.466;2023-07-08T00:53:58;4.10;;;2.38;;
67981;SDS011;64109;52.148;4.466;2023-07-08T00:56:35;2.83;;;2.10;;
67981;SDS011;64109;52.148;4.466;2023-07-08T00:59:05;4.90;;;2.75;;
67981;SDS011;64109;52.148;4.466;2023-07-08T01:01:32;4.95;;;3.10;;
67981;SDS011;64109;52.148;4.466;2023-07-08T01:04:02;3.00;;;1.92;;
67981;SDS011;64109;52.148;4.466;2023-07-08T01:08:59;3.22;;;2.22;;
67981;SDS011;64109;52.148;4.466;2023-07-08T01:11:27;3.60;;;2.25;;
67981;SDS011;64109;52.148;4.466;2023-07-08T01:13:54;2.97;;;2.05;;
67981;SDS011;64109;52.148;4.466;2023-07-08T01:16:20;3.10;;;1.92;;
67981;SDS011;64109;52.148;4.466;2023-07-08T01:18:47;3.33;;;2.70;;
67981;SDS011;64109;52.148;4.466;2023-07-08T01:23:56;4.32;;;2.25;;
67981;SDS011;64109;52.148;4.466;2023-07-08T01:26:23;3.03;;;1.70;;
67981;SDS011;64109;52.148;4.466;2023-07-08T01:28:53;3.78;;;2.05;;
67981;SDS011;64109;52.148;4.466;2023-07-08T01:31:21;3.80;;;2.05;;
67981;SDS011;64109;52.148;4.466;2023-07-08T01:33:47;4.60;;;2.00;;
67981;SDS011;64109;52.148;4.466;2023-07-08T01:36:13;3.67;;;2.85;;
67981;SDS011;64109;52.148;4.466;2023-07-08T01:38:39;4.18;;;3.13;;
67981;SDS011;64109;52.148;4.466;2023-07-08T01:41:10;3.55;;;3.03;;
67981;SDS011;64109;52.148;4.466;2023-07-08T01:43:36;4.38;;;2.05;;
67981;SDS011;64109;52.148;4.466;2023-07-08T01:46:02;3.85;;;2.17;;
67981;SDS011;64109;52.148;4.466;2023-07-08T01:48:31;3.63;;;2.05;;
67981;SDS011;64109;52.148;4.466;2023-07-08T01:51:01;3.83;;;2.92;;
67981;SDS011;64109;52.148;4.466;2023-07-08T01:53:30;3.25;;;1.90;;
67981;SDS011;64109;52.148;4.466;2023-07-08T01:55:57;4.18;;;2.15;;
67981;SDS011;64109;52.148;4.466;2023-07-08T01:58:23;3.80;;;2.30;;
67981;SDS011;64109;52.148;4.466;2023-07-08T02:00:49;2.83;;;1.90;;
67981;SDS011;64109;52.148;4.466;2023-07-08T02:03:15;2.65;;;1.75;;
67981;SDS011;64109;52.148;4.466;2023-07-08T02:05:41;3.05;;;2.03;;
67981;SDS011;64109;52.148;4.466;2023-07-08T02:08:08;4.00;;;2.65;;
67981;SDS011;64109;52.148;4.466;2023-07-08T02:10:34;4.80;;;3.13;;
67981;SDS011;64109;52.148;4.466;2023-07-08T02:13:00;3.92;;;1.77;;
67981;SDS011;64109;52.148;4.466;2023-07-08T02:15:26;3.05;;;1.77;;
67981;SDS011;64109;52.148;4.466;2023-07-08T02:17:52;3.30;;;2.05;;
67981;SDS011;64109;52.148;4.466;2023-07-08T02:20:18;3.92;;;2.55;;
67981;SDS011;64109;52.148;4.466;2023-07-08T02:22:44;3.92;;;1.80;;
67981;SDS011;64109;52.148;4.466;2023-07-08T02:25:10;3.42;;;2.40;;
67981;SDS011;64109;52.148;4.466;2023-07-08T02:27:36;3.03;;;2.03;;
67981;SDS011;64109;52.148;4.466;2023-07-08T02:30:03;3.03;;;2.72;;
67981;SDS011;64109;52.148;4.466;2023-07-08T02:32:29;3.35;;;2.10;;
67981;SDS011;64109;52.148;4.466;2023-07-08T02:34:55;3.80;;;2.65;;
67981;SDS011;64109;52.148;4.466;2023-07-08T02:37:21;2.95;;;1.90;;
67981;SDS011;64109;52.148;4.466;2023-07-08T02:39:47;3.42;;;2.38;;
67981;SDS011;64109;52.148;4.466;2023-07-08T02:42:13;3.70;;;3.08;;
67981;SDS011;64109;52.148;4.466;2023-07-08T02:44:39;3.95;;;1.90;;
67981;SDS011;64109;52.148;4.466;2023-07-08T02:47:05;3.70;;;2.55;;
67981;SDS011;64109;52.148;4.466;2023-07-08T02:49:31;3.17;;;1.92;;
67981;SDS011;64109;52.148;4.466;2023-07-08T02:51:57;3.90;;;1.65;;
67981;SDS011;64109;52.148;4.466;2023-07-08T02:54:23;3.42;;;2.03;;
67981;SDS011;64109;52.148;4.466;2023-07-08T02:56:49;4.15;;;2.10;;
67981;SDS011;64109;52.148;4.466;2023-07-08T02:59:15;3.38;;;2.05;;
67981;SDS011;64109;52.148;4.466;2023-07-08T03:01:41;3.97;;;3.15;;
67981;SDS011;64109;52.148;4.466;2023-07-08T03:04:08;4.15;;;2.90;;
67981;SDS011;64109;52.148;4.466;2023-07-08T03:06:38;3.72;;;2.40;;
67981;SDS011;64109;52.148;4.466;2023-07-08T03:09:04;5.03;;;2.50;;
67981;SDS011;64109;52.148;4.466;2023-07-08T03:11:30;3.70;;;2.15;;
67981;SDS011;64109;52.148;4.466;2023-07-08T03:13:56;3.97;;;2.15;;
67981;SDS011;64109;52.148;4.466;2023-07-08T03:16:21;3.13;;;1.92;;
67981;SDS011;64109;52.148;4.466;2023-07-08T03:18:47;3.90;;;3.55;;
67981;SDS011;64109;52.148;4.466;2023-07-08T03:21:14;4.07;;;2.08;;
67981;SDS011;64109;52.148;4.466;2023-07-08T03:23:41;4.18;;;2.42;;
67981;SDS011;64109;52.148;4.466;2023-07-08T03:26:07;3.53;;;1.90;;
67981;SDS011;64109;52.148;4.466;2023-07-08T03:28:34;3.90;;;2.35;;
67981;SDS011;64109;52.148;4.466;2023-07-08T03:31:00;2.78;;;1.85;;
67981;SDS011;64109;52.148;4.466;2023-07-08T03:33:26;3.00;;;1.90;;
67981;SDS011;64109;52.148;4.466;2023-07-08T03:35:52;3.47;;;2.15;;
67981;SDS011;64109;52.148;4.466;2023-07-08T03:38:19;4.00;;;2.00;;
67981;SDS011;64109;52.148;4.466;2023-07-08T03:40:44;3.95;;;1.95;;
67981;SDS011;64109;52.148;4.466;2023-07-08T03:43:10;3.83;;;1.80;;
67981;SDS011;64109;52.148;4.466;2023-07-08T03:45:36;4.40;;;2.17;;
67981;SDS011;64109;52.148;4.466;2023-07-08T03:48:03;4.47;;;2.60;;
67981;SDS011;64109;52.148;4.466;2023-07-08T03:50:29;3.10;;;2.33;;
67981;SDS011;64109;52.148;4.466;2023-07-08T03:52:55;2.97;;;2.20;;
67981;SDS011;64109;52.148;4.466;2023-07-08T03:55:21;6.55;;;2.88;;
67981;SDS011;64109;52.148;4.466;2023-07-08T03:57:47;2.35;;;2.00;;
67981;SDS011;64109;52.148;4.466;2023-07-08T04:00:14;2.92;;;2.55;;
67981;SDS011;64109;52.148;4.466;2023-07-08T04:02:41;3.55;;;2.08;;
67981;SDS011;64109;52.148;4.466;2023-07-08T04:05:12;3.50;;;2.35;;
67981;SDS011;64109;52.148;4.466;2023-07-08T04:07:39;4.28;;;2.40;;
67981;SDS011;64109;52.148;4.466;2023-07-08T04:10:06;3.63;;;2.03;;
67981;SDS011;64109;52.148;4.466;2023-07-08T04:12:32;4.05;;;2.28;;
67981;SDS011;64109;52.148;4.466;2023-07-08T04:14:58;3.72;;;2.35;;
67981;SDS011;64109;52.148;4.466;2023-07-08T04:17:24;3.38;;;2.25;;
67981;SDS011;64109;52.148;4.466;2023-07-08T04:19:50;4.25;;;2.03;;
67981;SDS011;64109;52.148;4.466;2023-07-08T04:22:16;4.85;;;1.90;;
67981;SDS011;64109;52.148;4.466;2023-07-08T04:24:42;4.32;;;1.95;;
67981;SDS011;64109;52.148;4.466;2023-07-08T04:27:15;3.10;;;1.95;;
67981;SDS011;64109;52.148;4.466;2023-07-08T04:29:42;3.13;;;2.15;;
67981;SDS011;64109;52.148;4.466;2023-07-08T04:32:08;6.10;;;1.90;;
67981;SDS011;64109;52.148;4.466;2023-07-08T04:34:34;3.08;;;2.22;;
67981;SDS011;64109;52.148;4.466;2023-07-08T04:37:00;2.95;;;1.98;;
67981;SDS011;64109;52.148;4.466;2023-07-08T04:39:26;2.88;;;2.28;;
67981;SDS011;64109;52.148;4.466;2023-07-08T04:41:52;4.22;;;2.25;;
67981;SDS011;64109;52.148;4.466;2023-07-08T04:44:18;4.13;;;2.92;;
67981;SDS011;64109;52.148;4.466;2023-07-08T04:46:56;4.40;;;1.80;;
67981;SDS011;64109;52.148;4.466;2023-07-08T04:49:23;3.58;;;1.73;;
67981;SDS011;64109;52.148;4.466;2023-07-08T04:51:50;4.50;;;2.17;;
67981;SDS011;64109;52.148;4.466;2023-07-08T04:54:16;3.85;;;2.78;;
67981;SDS011;64109;52.148;4.466;2023-07-08T04:56:43;4.32;;;3.10;;
67981;SDS011;64109;52.148;4.466;2023-07-08T04:59:11;3.45;;;2.13;;
67981;SDS011;64109;52.148;4.466;2023-07-08T05:01:37;4.15;;;3.00;;
67981;SDS011;64109;52.148;4.466;2023-07-08T05:04:03;2.83;;;2.00;;
67981;SDS011;64109;52.148;4.466;2023-07-08T05:06:32;4.80;;;2.65;;
67981;SDS011;64109;52.148;4.466;2023-07-08T05:08:59;4.80;;;2.25;;
67981;SDS011;64109;52.148;4.466;2023-07-08T05:11:25;5.30;;;2.85;;
67981;SDS011;64109;52.148;4.466;2023-07-08T05:13:51;3.83;;;3.10;;
67981;SDS011;64109;52.148;4.466;2023-07-08T05:16:17;4.25;;;2.28;;
67981;SDS011;64109;52.148;4.466;2023-07-08T05:18:43;4.68;;;2.13;;
67981;SDS011;64109;52.148;4.466;2023-07-08T05:21:09;6.70;;;2.28;;
67981;SDS011;64109;52.148;4.466;2023-07-08T05:23:36;6.57;;;2.53;;
67981;SDS011;64109;52.148;4.466;2023-07-08T05:26:02;8.95;;;2.47;;
67981;SDS011;64109;52.148;4.466;2023-07-08T05:28:29;4.15;;;2.45;;
67981;SDS011;64109;52.148;4.466;2023-07-08T05:30:55;5.45;;;2.45;;
67981;SDS011;64109;52.148;4.466;2023-07-08T05:33:22;3.85;;;2.38;;
67981;SDS011;64109;52.148;4.466;2023-07-08T05:35:48;3.90;;;3.17;;
67981;SDS011;64109;52.148;4.466;2023-07-08T05:38:15;7.75;;;2.60;;
67981;SDS011;64109;52.148;4.466;2023-07-08T05:40:41;4.95;;;2.13;;
67981;SDS011;64109;52.148;4.466;2023-07-08T05:43:07;7.05;;;2.58;;
67981;SDS011;64109;52.148;4.466;2023-07-08T05:45:32;7.47;;;2.80;;
67981;SDS011;64109;52.148;4.466;2023-07-08T05:48:00;6.45;;;2.63;;
67981;SDS011;64109;52.148;4.466;2023-07-08T05:50:26;7.53;;;3.15;;
67981;SDS011;64109;52.148;4.466;2023-07-08T05:52:52;6.93;;;2.70;;
67981;SDS011;64109;52.148;4.466;2023-07-08T05:55:18;5.88;;;2.50;;
67981;SDS011;64109;52.148;4.466;2023-07-08T05:57:44;6.43;;;3.30;;
67981;SDS011;64109;52.148;4.466;2023-07-08T06:00:10;4.78;;;2.65;;
67981;SDS011;64109;52.148;4.466;2023-07-08T06:02:37;4.97;;;3.90;;
67981;SDS011;64109;52.148;4.466;2023-07-08T06:05:03;4.80;;;2.47;;
67981;SDS011;64109;52.148;4.466;2023-07-08T06:07:29;3.67;;;2.28;;
67981;SDS011;64109;52.148;4.466;2023-07-08T06:09:55;5.05;;;3.00;;
67981;SDS011;64109;52.148;4.466;2023-07-08T06:12:22;5.20;;;3.75;;
67981;SDS011;64109;52.148;4.466;2023-07-08T06:14:48;3.85;;;2.78;;
67981;SDS011;64109;52.148;4.466;2023-07-08T06:17:15;9.82;;;3.35;;
67981;SDS011;64109;52.148;4.466;2023-07-08T06:19:42;5.53;;;2.50;;
67981;SDS011;64109;52.148;4.466;2023-07-08T06:22:08;4.07;;;3.20;;
67981;SDS011;64109;52.148;4.466;2023-07-08T06:24:34;8.02;;;2.55;;
67981;SDS011;64109;52.148;4.466;2023-07-08T06:27:00;5.97;;;2.65;;
67981;SDS011;64109;52.148;4.466;2023-07-08T06:29:26;5.95;;;2.38;;
67981;SDS011;64109;52.148;4.466;2023-07-08T06:31:52;3.78;;;2.55;;
67981;SDS011;64109;52.148;4.466;2023-07-08T06:34:19;4.22;;;2.17;;
67981;SDS011;64109;52.148;4.466;2023-07-08T06:36:48;4.70;;;3.80;;
67981;SDS011;64109;52.148;4.466;2023-07-08T06:39:14;4.65;;;2.55;;
67981;SDS011;64109;52.148;4.466;2023-07-08T06:41:40;5.38;;;3.30;;
67981;SDS011;64109;52.148;4.466;2023-07-08T06:44:06;5.25;;;2.97;;
67981;SDS011;64109;52.148;4.466;2023-07-08T06:46:32;7.05;;;2.72;;
67981;SDS011;64109;52.148;4.466;2023-07-08T06:48:58;4.68;;;2.70;;
67981;SDS011;64109;52.148;4.466;2023-07-08T06:51:25;4.28;;;2.53;;
67981;SDS011;64109;52.148;4.466;2023-07-08T06:53:51;3.75;;;2.78;;
67981;SDS011;64109;52.148;4.466;2023-07-08T06:56:17;4.57;;;2.60;;
67981;SDS011;64109;52.148;4.466;2023-07-08T06:58:43;4.35;;;2.60;;
67981;SDS011;64109;52.148;4.466;2023-07-08T07:01:09;4.88;;;2.88;;
67981;SDS011;64109;52.148;4.466;2023-07-08T07:03:35;4.88;;;2.70;;
67981;SDS011;64109;52.148;4.466;2023-07-08T07:06:01;6.18;;;2.75;;
67981;SDS011;64109;52.148;4.466;2023-07-08T07:08:27;4.03;;;2.70;;
67981;SDS011;64109;52.148;4.466;2023-07-08T07:10:53;5.13;;;3.40;;
67981;SDS011;64109;52.148;4.466;2023-07-08T07:13:19;3.75;;;2.55;;
67981;SDS011;64109;52.148;4.466;2023-07-08T07:15:45;5.00;;;2.78;;
67981;SDS011;64109;52.148;4.466;2023-07-08T07:18:13;5.07;;;2.95;;
67981;SDS011;64109;52.148;4.466;2023-07-08T07:20:46;4.75;;;3.95;;
67981;SDS011;64109;52.148;4.466;2023-07-08T07:23:12;4.95;;;4.45;;
67981;SDS011;64109;52.148;4.466;2023-07-08T07:25:38;5.78;;;2.80;;
67981;SDS011;64109;52.148;4.466;2023-07-08T07:28:04;4.95;;;3.72;;
67981;SDS011;64109;52.148;4.466;2023-07-08T07:30:30;4.18;;;3.50;;
67981;SDS011;64109;52.148;4.466;2023-07-08T07:32:58;5.55;;;2.78;;
67981;SDS011;64109;52.148;4.466;2023-07-08T07:35:25;4.97;;;2.88;;
67981;SDS011;64109;52.148;4.466;2023-07-08T07:37:51;6.40;;;3.78;;
67981;SDS011;64109;52.148;4.466;2023-07-08T07:40:17;4.18;;;3.78;;
67981;SDS011;64109;52.148;4.466;2023-07-08T07:42:43;3.50;;;2.38;;
67981;SDS011;64109;52.148;4.466;2023-07-08T07:45:10;4.13;;;2.47;;
67981;SDS011;64109;52.148;4.466;2023-07-08T07:47:36;4.95;;;3.25;;
67981;SDS011;64109;52.148;4.466;2023-07-08T07:50:06;4.18;;;2.58;;
67981;SDS011;64109;52.148;4.466;2023-07-08T07:52:32;4.50;;;3.03;;
67981;SDS011;64109;52.148;4.466;2023-07-08T07:54:58;4.60;;;3.00;;
67981;SDS011;64109;52.148;4.466;2023-07-08T07:57:25;5.03;;;2.67;;
67981;SDS011;64109;52.148;4.466;2023-07-08T07:59:51;3.67;;;2.65;;
67981;SDS011;64109;52.148;4.466;2023-07-08T08:02:17;3.97;;;2.60;;
67981;SDS011;64109;52.148;4.466;2023-07-08T08:04:43;5.57;;;4.13;;
67981;SDS011;64109;52.148;4.466;2023-07-08T08:07:10;4.45;;;2.65;;
67981;SDS011;64109;52.148;4.466;2023-07-08T08:09:36;5.55;;;3.63;;
67981;SDS011;64109;52.148;4.466;2023-07-08T08:12:03;4.47;;;3.78;;
67981;SDS011;64109;52.148;4.466;2023-07-08T08:14:29;4.25;;;2.55;;
67981;SDS011;64109;52.148;4.466;2023-07-08T08:16:55;3.80;;;2.40;;
67981;SDS011;64109;52.148;4.466;2023-07-08T08:19:21;4.40;;;3.45;;
67981;SDS011;64109;52.148;4.466;2023-07-08T08:21:47;5.55;;;3.17;;
67981;SDS011;64109;52.148;4.466;2023-07-08T08:24:13;4.30;;;2.47;;
67981;SDS011;64109;52.148;4.466;2023-07-08T08:26:40;4.20;;;2.75;;
67981;SDS011;64109;52.148;4.466;2023-07-08T08:29:06;4.20;;;2.65;;
67981;SDS011;64109;52.148;4.466;2023-07-08T08:31:31;6.50;;;3.50;;
67981;SDS011;64109;52.148;4.466;2023-07-08T08:33:57;5.57;;;2.97;;
67981;SDS011;64109;52.148;4.466;2023-07-08T08:36:23;3.08;;;2.47;;
67981;SDS011;64109;52.148;4.466;2023-07-08T08:38:50;5.38;;;2.80;;
67981;SDS011;64109;52.148;4.466;2023-07-08T08:41:19;3.65;;;2.63;;
67981;SDS011;64109;52.148;4.466;2023-07-08T08:43:46;5.22;;;4.72;;
67981;SDS011;64109;52.148;4.466;2023-07-08T08:46:29;3.85;;;2.83;;
67981;SDS011;64109;52.148;4.466;2023-07-08T08:53:53;6.45;;;3.45;;
67981;SDS011;64109;52.148;4.466;2023-07-08T08:56:23;4.03;;;2.67;;
67981;SDS011;64109;52.148;4.466;2023-07-08T09:01:24;4.47;;;2.55;;
67981;SDS011;64109;52.148;4.466;2023-07-08T09:03:51;3.15;;;2.75;;
67981;SDS011;64109;52.148;4.466;2023-07-08T09:06:20;8.38;;;2.70;;
67981;SDS011;64109;52.148;4.466;2023-07-08T09:08:48;3.90;;;2.42;;
67981;SDS011;64109;52.148;4.466;2023-07-08T09:11:23;5.97;;;3.50;;
67981;SDS011;64109;52.148;4.466;2023-07-08T09:13:51;4.95;;;3.38;;
67981;SDS011;64109;52.148;4.466;2023-07-08T09:19:37;3.75;;;2.35;;
67981;SDS011;64109;52.148;4.466;2023-07-08T09:24:22;6.00;;;3.28;;
67981;SDS011;64109;52.148;4.466;2023-07-08T09:26:52;8.02;;;4.18;;
67981;SDS011;64109;52.148;4.466;2023-07-08T09:31:47;4.00;;;2.85;;
67981;SDS011;64109;52.148;4.466;2023-07-08T09:34:15;4.25;;;2.95;;
67981;SDS011;64109;52.148;4.466;2023-07-08T09:36:42;4.70;;;2.80;;
67981;SDS011;64109;52.148;4.466;2023-07-08T09:39:12;5.03;;;2.95;;
67981;SDS011;64109;52.148;4.466;2023-07-08T09:41:38;4.30;;;2.67;;
67981;SDS011;64109;52.148;4.466;2023-07-08T09:46:40;4.43;;;2.97;;
67981;SDS011;64109;52.148;4.466;2023-07-08T09:49:48;4.68;;;2.75;;
67981;SDS011;64109;52.148;4.466;2023-07-08T09:51:55;4.95;;;2.55;;
67981;SDS011;64109;52.148;4.466;2023-07-08T09:54:22;6.22;;;2.55;;
67981;SDS011;64109;52.148;4.466;2023-07-08T09:56:58;4.78;;;2.83;;
67981;SDS011;64109;52.148;4.466;2023-07-08T09:59:31;5.63;;;3.95;;
67981;SDS011;64109;52.148;4.466;2023-07-08T10:02:00;5.68;;;2.95;;
67981;SDS011;64109;52.148;4.466;2023-07-08T10:04:27;5.45;;;2.88;;
67981;SDS011;64109;52.148;4.466;2023-07-08T10:06:54;4.68;;;2.63;;
67981;SDS011;64109;52.148;4.466;2023-07-08T10:09:20;5.32;;;2.92;;
67981;SDS011;64109;52.148;4.466;2023-07-08T10:11:59;5.30;;;2.80;;
67981;SDS011;64109;52.148;4.466;2023-07-08T10:14:27;5.65;;;3.10;;
67981;SDS011;64109;52.148;4.466;2023-07-08T10:16:54;5.03;;;2.75;;
67981;SDS011;64109;52.148;4.466;2023-07-08T10:19:21;3.90;;;2.63;;
67981;SDS011;64109;52.148;4.466;2023-07-08T10:22:07;5.68;;;4.00;;
67981;SDS011;64109;52.148;4.466;2023-07-08T10:29:50;4.55;;;3.40;;
67981;SDS011;64109;52.148;4.466;2023-07-08T10:34:49;6.18;;;2.85;;
67981;SDS011;64109;52.148;4.466;2023-07-08T10:37:34;5.90;;;3.35;;
67981;SDS011;64109;52.148;4.466;2023-07-08T10:50:49;6.88;;;2.80;;
67981;SDS011;64109;52.148;4.466;2023-07-08T10:53:34;5.50;;;2.63;;
67981;SDS011;64109;52.148;4.466;2023-07-08T10:58:36;6.10;;;3.20;;
67981;SDS011;64109;52.148;4.466;2023-07-08T11:07:10;5.82;;;2.83;;
67981;SDS011;64109;52.148;4.466;2023-07-08T11:09:12;5.93;;;3.08;;
67981;SDS011;64109;52.148;4.466;2023-07-08T11:14:22;6.85;;;3.72;;
67981;SDS011;64109;52.148;4.466;2023-07-08T11:17:34;6.57;;;4.25;;
67981;SDS011;64109;52.148;4.466;2023-07-08T11:19:45;6.03;;;3.05;;
67981;SDS011;64109;52.148;4.466;2023-07-08T11:22:12;4.50;;;2.88;;
67981;SDS011;64109;52.148;4.466;2023-07-08T11:24:46;6.63;;;4.22;;
67981;SDS011;64109;52.148;4.466;2023-07-08T11:30:06;5.78;;;2.75;;
67981;SDS011;64109;52.148;4.466;2023-07-08T11:32:31;6.50;;;3.20;;
67981;SDS011;64109;52.148;4.466;2023-07-08T11:34:57;5.70;;;3.03;;
67981;SDS011;64109;52.148;4.466;2023-07-08T11:37:24;6.03;;;3.17;;
67981;SDS011;64109;52.148;4.466;2023-07-08T11:39:57;5.35;;;3.13;;
67981;SDS011;64109;52.148;4.466;2023-07-08T11:42:34;8.55;;;3.42;;
67981;SDS011;64109;52.148;4.466;2023-07-08T11:45:01;6.35;;;3.35;;
67981;SDS011;64109;52.148;4.466;2023-07-08T11:47:39;8.05;;;4.63;;
67981;SDS011;64109;52.148;4.466;2023-07-08T11:50:51;4.40;;;3.08;;
67981;SDS011;64109;52.148;4.466;2023-07-08T11:52:53;4.70;;;3.00;;
67981;SDS011;64109;52.148;4.466;2023-07-08T11:55:21;6.75;;;3.88;;
67981;SDS011;64109;52.148;4.466;2023-07-08T11:57:47;6.60;;;3.70;;
67981;SDS011;64109;52.148;4.466;2023-07-08T12:00:23;7.10;;;3.42;;
67981;SDS011;64109;52.148;4.466;2023-07-08T12:05:15;12.52;;;3.50;;
67981;SDS011;64109;52.148;4.466;2023-07-08T12:07:45;6.15;;;3.90;;
67981;SDS011;64109;52.148;4.466;2023-07-08T12:12:40;6.38;;;3.28;;
67981;SDS011;64109;52.148;4.466;2023-07-08T12:17:38;5.47;;;4.10;;
67981;SDS011;64109;52.148;4.466;2023-07-08T12:20:06;5.18;;;3.55;;
67981;SDS011;64109;52.148;4.466;2023-07-08T12:22:38;6.68;;;4.05;;
67981;SDS011;64109;52.148;4.466;2023-07-08T12:25:07;5.15;;;3.38;;
67981;SDS011;64109;52.148;4.466;2023-07-08T12:27:34;6.82;;;3.28;;
67981;SDS011;64109;52.148;4.466;2023-07-08T12:30:00;5.78;;;4.50;;
67981;SDS011;64109;52.148;4.466;2023-07-08T12:32:27;5.40;;;3.33;;
67981;SDS011;64109;52.148;4.466;2023-07-08T12:34:53;5.57;;;3.58;;
67981;SDS011;64109;52.148;4.466;2023-07-08T12:37:19;5.07;;;3.40;;
67981;SDS011;64109;52.148;4.466;2023-07-08T12:39:53;4.82;;;3.00;;
67981;SDS011;64109;52.148;4.466;2023-07-08T12:42:19;6.13;;;4.47;;
67981;SDS011;64109;52.148;4.466;2023-07-08T12:44:46;6.18;;;3.75;;
67981;SDS011;64109;52.148;4.466;2023-07-08T12:47:13;7.22;;;3.85;;
67981;SDS011;64109;52.148;4.466;2023-07-08T12:49:39;5.50;;;3.22;;
67981;SDS011;64109;52.148;4.466;2023-07-08T12:52:05;7.38;;;3.63;;
67981;SDS011;64109;52.148;4.466;2023-07-08T12:54:31;8.10;;;3.67;;
67981;SDS011;64109;52.148;4.466;2023-07-08T12:56:59;5.97;;;4.15;;
67981;SDS011;64109;52.148;4.466;2023-07-08T12:59:25;6.82;;;4.10;;
67981;SDS011;64109;52.148;4.466;2023-07-08T13:01:51;8.02;;;4.05;;
67981;SDS011;64109;52.148;4.466;2023-07-08T13:04:18;7.50;;;3.65;;
67981;SDS011;64109;52.148;4.466;2023-07-08T13:06:45;7.35;;;3.58;;
67981;SDS011;64109;52.148;4.466;2023-07-08T13:11:41;6.32;;;3.42;;
67981;SDS011;64109;52.148;4.466;2023-07-08T13:14:07;5.45;;;3.15;;
67981;SDS011;64109;52.148;4.466;2023-07-08T13:16:34;7.72;;;3.35;;
67981;SDS011;64109;52.148;4.466;2023-07-08T13:19:00;5.45;;;3.25;;
67981;SDS011;64109;52.148;4.466;2023-07-08T13:21:26;5.90;;;3.47;;
67981;SDS011;64109;52.148;4.466;2023-07-08T13:23:55;7.03;;;4.53;;
67981;SDS011;64109;52.148;4.466;2023-07-08T13:26:21;5.93;;;2.95;;
67981;SDS011;64109;52.148;4.466;2023-07-08T13:28:48;6.13;;;3.85;;
67981;SDS011;64109;52.148;4.466;2023-07-08T13:31:18;5.72;;;4.38;;
67981;SDS011;64109;52.148;4.466;2023-07-08T13:33:48;5.90;;;4.18;;
67981;SDS011;64109;52.148;4.466;2023-07-08T13:36:16;9.13;;;4.43;;
67981;SDS011;64109;52.148;4.466;2023-07-08T13:38:43;8.43;;;3.83;;
67981;SDS011;64109;52.148;4.466;2023-07-08T13:41:09;8.50;;;4.95;;
67981;SDS011;64109;52.148;4.466;2023-07-08T13:43:38;5.65;;;3.72;;
67981;SDS011;64109;52.148;4.466;2023-07-08T13:46:06;6.13;;;3.55;;
67981;SDS011;64109;52.148;4.466;2023-07-08T13:48:39;6.40;;;3.45;;
67981;SDS011;64109;52.148;4.466;2023-07-08T13:51:10;6.88;;;4.65;;
67981;SDS011;64109;52.148;4.466;2023-07-08T13:58:31;5.65;;;3.47;;
67981;SDS011;64109;52.148;4.466;2023-07-08T14:00:57;6.30;;;3.35;;
67981;SDS011;64109;52.148;4.466;2023-07-08T14:03:23;5.88;;;3.80;;
67981;SDS011;64109;52.148;4.466;2023-07-08T14:05:50;5.45;;;2.97;;
67981;SDS011;64109;52.148;4.466;2023-07-08T14:08:16;6.25;;;3.88;;
67981;SDS011;64109;52.148;4.466;2023-07-08T14:10:47;6.10;;;3.63;;
67981;SDS011;64109;52.148;4.466;2023-07-08T14:13:13;5.97;;;4.03;;
67981;SDS011;64109;52.148;4.466;2023-07-08T14:15:40;6.15;;;3.25;;
67981;SDS011;64109;52.148;4.466;2023-07-08T14:18:07;6.82;;;3.63;;
67981;SDS011;64109;52.148;4.466;2023-07-08T14:20:34;6.22;;;3.58;;
67981;SDS011;64109;52.148;4.466;2023-07-08T14:23:00;6.40;;;3.20;;
67981;SDS011;64109;52.148;4.466;2023-07-08T14:25:26;6.20;;;3.58;;
67981;SDS011;64109;52.148;4.466;2023-07-08T14:27:52;10.40;;;4.00;;
67981;SDS011;64109;52.148;4.466;2023-07-08T14:30:18;7.20;;;3.38;;
67981;SDS011;64109;52.148;4.466;2023-07-08T14:32:44;5.20;;;2.97;;
67981;SDS011;64109;52.148;4.466;2023-07-08T14:35:18;5.45;;;3.30;;
67981;SDS011;64109;52.148;4.466;2023-07-08T14:37:45;6.25;;;3.65;;
67981;SDS011;64109;52.148;4.466;2023-07-08T14:40:18;5.05;;;3.03;;
67981;SDS011;64109;52.148;4.466;2023-07-08T14:42:45;7.28;;;4.70;;
67981;SDS011;64109;52.148;4.466;2023-07-08T14:45:11;5.88;;;3.35;;
67981;SDS011;64109;52.148;4.466;2023-07-08T14:47:37;5.78;;;3.25;;
67981;SDS011;64109;52.148;4.466;2023-07-08T14:50:10;6.57;;;3.53;;
67981;SDS011;64109;52.148;4.466;2023-07-08T14:52:37;7.18;;;3.83;;
67981;SDS011;64109;52.148;4.466;2023-07-08T14:55:03;4.45;;;3.03;;
67981;SDS011;64109;52.148;4.466;2023-07-08T14:57:30;6.28;;;3.47;;
67981;SDS011;64109;52.148;4.466;2023-07-08T14:59:59;5.68;;;3.25;;
67981;SDS011;64109;52.148;4.466;2023-07-08T15:02:25;6.90;;;3.20;;
67981;SDS011;64109;52.148;4.466;2023-07-08T15:04:51;6.38;;;3.53;;
67981;SDS011;64109;52.148;4.466;2023-07-08T15:07:18;8.80;;;4.10;;
67981;SDS011;64109;52.148;4.466;2023-07-08T15:09:44;13.38;;;3.97;;
67981;SDS011;64109;52.148;4.466;2023-07-08T15:12:11;6.78;;;3.38;;
67981;SDS011;64109;52.148;4.466;2023-07-08T15:14:37;9.45;;;3.53;;
67981;SDS011;64109;52.148;4.466;2023-07-08T15:17:08;9.38;;;4.07;;
67981;SDS011;64109;52.148;4.466;2023-07-08T15:19:34;8.35;;;3.40;;
67981;SDS011;64109;52.148;4.466;2023-07-08T15:22:00;7.88;;;3.75;;
67981;SDS011;64109;52.148;4.466;2023-07-08T15:24:26;10.45;;;3.95;;
67981;SDS011;64109;52.148;4.466;2023-07-08T15:26:52;6.95;;;3.90;;
67981;SDS011;64109;52.148;4.466;2023-07-08T15:29:19;7.07;;;4.40;;
67981;SDS011;64109;52.148;4.466;2023-07-08T15:31:47;8.52;;;4.68;;
67981;SDS011;64109;52.148;4.466;2023-07-08T15:34:13;7.45;;;3.88;;
67981;SDS011;64109;52.148;4.466;2023-07-08T15:36:40;6.22;;;3.58;;
67981;SDS011;64109;52.148;4.466;2023-07-08T15:39:06;8.25;;;3.75;;
67981;SDS011;64109;52.148;4.466;2023-07-08T15:41:32;9.43;;;5.70;;
67981;SDS011;64109;52.148;4.466;2023-07-08T15:43:58;8.45;;;3.97;;
67981;SDS011;64109;52.148;4.466;2023-07-08T15:46:30;5.38;;;2.92;;
67981;SDS011;64109;52.148;4.466;2023-07-08T15:48:57;5.35;;;3.70;;
67981;SDS011;64109;52.148;4.466;2023-07-08T15:51:23;8.43;;;4.07;;
67981;SDS011;64109;52.148;4.466;2023-07-08T15:53:49;9.25;;;4.30;;
67981;SDS011;64109;52.148;4.466;2023-07-08T15:56:17;6.95;;;3.55;;
67981;SDS011;64109;52.148;4.466;2023-07-08T16:01:13;11.10;;;5.60;;
67981;SDS011;64109;52.148;4.466;2023-07-08T16:03:41;14.02;;;5.78;;
67981;SDS011;64109;52.148;4.466;2023-07-08T16:06:07;17.67;;;6.80;;